Time;durP1;ratioP1;P1;durP2;ratioP2;P2;SDS_P1;SDS_P2;PMS_P1;PMS_P2;Temp;Humidity;BMP_temperature;BMP_pressure;BME280_temperature;BME280_humidity;BME280_pressure;Samples;Min_cycle;Max_cycle;Signal;HPM_P1;HPM_P2
2023/09/10 00:00:13;;;;;;;10.13;9.23;;;23.60;80.10;;;;;;5038502;28;20990;-70
2023/09/10 00:02:41;;;;;;;9.97;9.03;;;23.60;80.10;;;;;;5037173;28;20462;-69
2023/09/10 00:05:08;;;;;;;9.13;7.97;;;23.50;80.20;;;;;;5037955;28;20447;-69
2023/09/10 00:07:35;;;;;;;10.13;8.93;;;23.60;80.40;;;;;;5039801;28;20505;-70
2023/09/10 00:10:02;;;;;;;11.27;8.80;;;23.50;80.30;;;;;;5040603;28;20442;-70
2023/09/10 00:12:29;;;;;;;11.13;9.53;;;23.50;80.40;;;;;;5040479;28;20473;-69
2023/09/10 00:14:56;;;;;;;11.23;9.67;;;23.50;80.90;;;;;;5040050;28;20454;-69
2023/09/10 00:17:23;;;;;;;12.50;10.27;;;23.50;81.10;;;;;;5035418;28;20493;-70
2023/09/10 00:19:51;;;;;;;10.73;9.20;;;23.40;81.10;;;;;;5034846;28;20553;-70
2023/09/10 00:22:18;;;;;;;11.90;9.70;;;23.40;81.00;;;;;;5034572;28;20478;-71
2023/09/10 00:24:44;;;;;;;10.77;9.77;;;23.40;81.10;;;;;;5035539;28;20469;-71
2023/09/10 00:27:11;;;;;;;10.63;9.83;;;23.40;81.60;;;;;;5034881;28;20446;-70
2023/09/10 00:29:38;;;;;;;10.73;9.70;;;23.40;81.90;;;;;;5034690;28;20443;-70
2023/09/10 00:32:05;;;;;;;12.33;10.20;;;23.30;81.70;;;;;;5035027;28;20504;-70
2023/09/10 00:34:32;;;;;;;10.90;9.07;;;23.30;81.90;;;;;;5034793;28;20497;-71
2023/09/10 00:37:02;;;;;;;14.03;10.23;;;23.30;82.30;;;;;;5034474;28;20533;-70
2023/09/10 00:39:29;;;;;;;11.17;9.50;;;23.20;82.30;;;;;;5034668;28;20486;-69
2023/09/10 00:41:55;;;;;;;11.13;9.27;;;23.20;82.60;;;;;;5034829;28;20446;-71
2023/09/10 00:44:23;;;;;;;13.40;10.07;;;23.20;82.80;;;;;;5034832;28;20442;-69
2023/09/10 00:46:51;;;;;;;10.83;9.70;;;23.10;82.70;;;;;;5033768;28;20950;-70
2023/09/10 00:49:18;;;;;;;10.53;9.43;;;23.20;82.80;;;;;;5034376;28;20454;-69
2023/09/10 00:51:48;;;;;;;12.13;10.17;;;23.10;82.90;;;;;;5033150;28;20886;-70
2023/09/10 00:54:17;;;;;;;15.53;10.03;;;23.10;83.20;;;;;;5037451;28;20477;-69
2023/09/10 00:56:44;;;;;;;11.57;10.37;;;23.10;83.50;;;;;;5037786;28;20813;-70
2023/09/10 00:59:11;;;;;;;13.73;10.80;;;23.10;83.50;;;;;;5037348;28;20438;-70
2023/09/10 01:01:38;;;;;;;11.43;10.10;;;23.10;83.50;;;;;;5036870;28;20498;-70
2023/09/10 01:04:07;;;;;;;11.57;9.93;;;23.00;83.70;;;;;;5038310;28;20475;-69
2023/09/10 01:06:34;;;;;;;11.40;9.53;;;23.00;83.70;;;;;;5038103;28;20529;-70
2023/09/10 01:09:04;;;;;;;10.57;9.53;;;23.00;83.80;;;;;;5037864;28;20935;-70
2023/09/10 01:11:42;;;;;;;10.53;9.53;;;22.90;84.00;;;;;;5036871;28;20451;-70
2023/09/10 01:14:13;;;;;;;16.77;10.80;;;22.90;84.10;;;;;;5037743;28;21033;-69
2023/09/10 01:16:48;;;;;;;10.03;9.13;;;22.90;84.20;;;;;;5038853;28;20427;-70
2023/09/10 01:19:49;;;;;;;10.37;9.37;;;22.80;84.00;;;;;;5038213;28;20430;-70
2023/09/10 01:22:25;;;;;;;10.60;9.70;;;22.80;83.80;;;;;;5038180;28;20490;-70
2023/09/10 01:24:55;;;;;;;11.27;10.07;;;22.70;83.80;;;;;;5038079;28;20434;-70
2023/09/10 01:27:21;;;;;;;10.93;9.83;;;22.70;83.70;;;;;;5037736;28;20454;-70
2023/09/10 01:29:48;;;;;;;11.33;10.20;;;22.60;83.50;;;;;;5036681;28;20500;-69
2023/09/10 01:32:23;;;;;;;11.50;10.30;;;22.60;83.60;;;;;;5037216;28;20947;-69
2023/09/10 01:34:56;;;;;;;11.37;10.13;;;22.50;83.80;;;;;;5037916;28;20855;-70
2023/09/10 01:37:30;;;;;;;11.57;10.40;;;22.50;84.00;;;;;;5037792;28;20442;-70
2023/09/10 01:40:00;;;;;;;17.83;10.93;;;22.50;84.40;;;;;;5037411;28;20470;-69
2023/09/10 01:42:27;;;;;;;11.47;10.33;;;22.50;84.50;;;;;;5037816;28;20528;-69
2023/09/10 01:44:55;;;;;;;11.37;10.30;;;22.50;84.50;;;;;;5038076;28;20449;-69
2023/09/10 01:47:22;;;;;;;11.33;10.00;;;22.50;84.50;;;;;;5037844;28;20935;-70
2023/09/10 01:49:49;;;;;;;13.97;10.03;;;22.50;84.70;;;;;;5037952;28;20525;-70
2023/09/10 01:52:15;;;;;;;14.47;10.60;;;22.50;84.70;;;;;;5041043;28;20450;-69
2023/09/10 01:54:43;;;;;;;12.30;10.70;;;22.40;84.70;;;;;;5038593;28;20447;-70
2023/09/10 01:57:11;;;;;;;10.47;9.43;;;22.50;85.10;;;;;;5038528;28;20802;-70
2023/09/10 01:59:37;;;;;;;13.13;10.73;;;22.40;85.00;;;;;;5039940;28;20446;-69
2023/09/10 02:02:04;;;;;;;11.23;10.20;;;22.40;85.00;;;;;;5039252;28;20454;-69
2023/09/10 02:04:31;;;;;;;11.10;10.00;;;22.40;85.40;;;;;;5037734;28;20537;-70
2023/09/10 02:06:58;;;;;;;15.50;10.40;;;22.40;85.50;;;;;;5038531;28;20537;-70
2023/09/10 02:09:24;;;;;;;13.27;9.97;;;22.40;85.60;;;;;;5050697;28;20816;-69
2023/09/10 02:11:51;;;;;;;12.30;10.63;;;22.30;85.50;;;;;;5043150;28;20445;-69
2023/09/10 02:14:19;;;;;;;13.60;10.87;;;22.30;85.70;;;;;;5042035;28;20470;-69
2023/09/10 02:16:46;;;;;;;11.20;10.10;;;22.30;86.00;;;;;;5040065;28;20450;-71
2023/09/10 02:19:13;;;;;;;16.00;10.80;;;22.30;86.30;;;;;;5038885;28;20449;-70
2023/09/10 02:21:40;;;;;;;11.73;10.57;;;22.20;86.80;;;;;;5036476;28;20489;-70
2023/09/10 02:24:08;;;;;;;10.93;9.90;;;22.10;86.40;;;;;;5041558;28;20462;-69
2023/09/10 02:26:34;;;;;;;13.20;10.20;;;22.10;86.60;;;;;;5043500;28;20451;-70
2023/09/10 02:29:02;;;;;;;11.57;10.40;;;22.10;86.70;;;;;;5040814;28;20446;-70
2023/09/10 02:31:30;;;;;;;13.53;10.33;;;22.00;86.40;;;;;;5042904;28;20454;-70
2023/09/10 02:34:00;;;;;;;11.60;10.50;;;22.00;86.20;;;;;;5041888;28;20469;-70
2023/09/10 02:36:27;;;;;;;14.67;10.33;;;22.00;86.20;;;;;;5040245;28;20817;-70
2023/09/10 02:38:57;;;;;;;15.43;11.67;;;21.90;86.30;;;;;;5039788;28;20443;-70
2023/09/10 02:41:24;;;;;;;11.70;10.27;;;21.90;86.40;;;;;;5038894;28;20478;-70
2023/09/10 02:43:51;;;;;;;12.20;11.10;;;21.80;86.60;;;;;;5039692;28;20467;-69
2023/09/10 02:46:17;;;;;;;10.87;9.77;;;21.90;86.90;;;;;;5038871;28;20474;-70
2023/09/10 02:48:47;;;;;;;12.73;10.40;;;21.80;86.90;;;;;;5039232;28;20450;-70
2023/09/10 02:51:14;;;;;;;13.50;10.93;;;21.80;87.20;;;;;;5036437;28;20451;-70
2023/09/10 02:53:40;;;;;;;14.63;10.27;;;21.70;87.20;;;;;;5038526;28;20470;-69
2023/09/10 02:56:07;;;;;;;11.90;10.60;;;21.80;87.60;;;;;;5037788;28;20450;-70
2023/09/10 02:58:34;;;;;;;13.97;10.60;;;21.80;87.80;;;;;;5037453;28;20458;-70
2023/09/10 03:01:04;;;;;;;13.53;10.23;;;21.80;87.90;;;;;;5035895;28;20489;-70
2023/09/10 03:03:32;;;;;;;11.53;10.53;;;21.70;88.10;;;;;;5037057;28;20512;-69
2023/09/10 03:06:00;;;;;;;12.77;11.60;;;21.70;88.20;;;;;;5037498;28;20454;-70
2023/09/10 03:08:27;;;;;;;13.40;11.27;;;21.80;88.40;;;;;;5036835;28;20450;-70
2023/09/10 03:10:54;;;;;;;12.77;11.30;;;21.70;88.40;;;;;;5036702;28;20786;-69
2023/09/10 03:13:21;;;;;;;12.50;11.33;;;21.70;88.50;;;;;;5036647;28;20466;-69
2023/09/10 03:15:48;;;;;;;12.07;10.87;;;21.70;88.60;;;;;;5036911;28;20443;-70
2023/09/10 03:18:15;;;;;;;13.70;10.60;;;21.70;88.70;;;;;;5034432;28;20932;-70
2023/09/10 03:20:42;;;;;;;12.00;10.80;;;21.70;88.80;;;;;;5035435;28;20478;-70
2023/09/10 03:23:11;;;;;;;12.60;10.60;;;21.70;88.80;;;;;;5035667;28;20466;-69
2023/09/10 03:25:39;;;;;;;11.83;10.80;;;21.70;88.90;;;;;;5035447;28;20936;-69
2023/09/10 03:28:07;;;;;;;12.10;11.10;;;21.60;88.90;;;;;;5035393;28;20447;-70
2023/09/10 03:30:34;;;;;;;12.20;11.17;;;21.60;89.10;;;;;;5035537;28;20823;-69
2023/09/10 03:33:01;;;;;;;11.63;10.50;;;21.60;89.20;;;;;;5035862;28;20469;-69
2023/09/10 03:35:27;;;;;;;13.80;11.23;;;21.60;89.30;;;;;;5035335;28;20461;-70
2023/09/10 03:37:54;;;;;;;16.13;10.57;;;21.60;89.10;;;;;;5035521;28;20454;-70
2023/09/10 03:40:22;;;;;;;11.73;10.50;;;21.60;89.20;;;;;;5034218;28;21003;-70
2023/09/10 03:42:49;;;;;;;12.30;10.90;;;21.60;89.40;;;;;;5035481;28;20463;-69
2023/09/10 03:45:16;;;;;;;11.60;10.33;;;21.60;89.40;;;;;;5035520;28;20450;-69
2023/09/10 03:47:43;;;;;;;15.03;10.87;;;21.60;89.40;;;;;;5035418;28;20442;-70
2023/09/10 03:50:11;;;;;;;12.20;10.97;;;21.50;89.20;;;;;;5034253;28;20450;-70
2023/09/10 03:52:38;;;;;;;13.50;12.10;;;21.50;89.90;;;;;;5035315;28;20458;-69
2023/09/10 03:55:07;;;;;;;12.03;10.83;;;21.50;89.80;;;;;;5035273;28;20835;-70
2023/09/10 03:57:35;;;;;;;12.40;11.10;;;21.50;90.00;;;;;;5035516;28;20453;-69
2023/09/10 04:00:03;;;;;;;11.93;10.77;;;21.50;90.00;;;;;;5033994;28;20831;-70
2023/09/10 04:02:30;;;;;;;11.40;10.30;;;21.50;90.10;;;;;;5035092;28;20490;-69
2023/09/10 04:04:57;;;;;;;11.93;10.90;;;21.50;90.10;;;;;;5035119;28;20454;-70
2023/09/10 04:07:24;;;;;;;15.87;11.20;;;21.50;90.20;;;;;;5034470;28;20939;-70
2023/09/10 04:09:51;;;;;;;12.17;10.90;;;21.50;90.20;;;;;;5035291;28;20449;-70
2023/09/10 04:12:17;;;;;;;12.67;11.53;;;21.40;90.20;;;;;;5035435;28;20470;-69
2023/09/10 04:14:45;;;;;;;13.93;11.07;;;21.40;90.20;;;;;;5033562;28;20944;-69
2023/09/10 04:17:16;;;;;;;11.80;10.70;;;21.40;90.20;;;;;;5035215;28;20450;-70
2023/09/10 04:19:42;;;;;;;13.23;10.77;;;21.30;90.20;;;;;;5034879;28;20947;-70
2023/09/10 04:22:09;;;;;;;12.10;11.10;;;21.40;90.50;;;;;;5034772;28;20505;-69
2023/09/10 04:24:37;;;;;;;11.70;10.50;;;21.30;90.40;;;;;;5034812;28;20442;-70
2023/09/10 04:27:04;;;;;;;22.97;11.20;;;21.30;90.40;;;;;;5039643;28;20466;-70
2023/09/10 04:29:31;;;;;;;13.60;11.10;;;21.30;90.40;;;;;;5044556;28;20508;-70
2023/09/10 04:31:59;;;;;;;12.93;11.63;;;21.30;90.50;;;;;;5040000;28;20446;-69
2023/09/10 04:34:26;;;;;;;12.10;11.00;;;21.30;90.60;;;;;;5037334;28;20446;-70
2023/09/10 04:36:53;;;;;;;13.77;11.30;;;21.30;90.60;;;;;;5036424;28;20931;-69
2023/09/10 04:39:20;;;;;;;11.80;10.70;;;21.30;90.60;;;;;;5036437;28;20454;-69
2023/09/10 04:41:46;;;;;;;12.57;11.50;;;21.20;90.50;;;;;;5036194;28;20482;-70
2023/09/10 04:44:13;;;;;;;13.90;11.33;;;21.20;90.50;;;;;;5035470;28;20470;-69
2023/09/10 04:46:40;;;;;;;15.97;11.17;;;21.20;90.60;;;;;;5034215;28;20446;-70
2023/09/10 04:49:08;;;;;;;11.40;10.37;;;21.20;90.70;;;;;;5042215;28;20442;-70
2023/09/10 04:51:35;;;;;;;11.30;10.20;;;21.20;90.80;;;;;;5035206;28;20438;-70
2023/09/10 04:54:02;;;;;;;14.63;11.00;;;21.10;90.80;;;;;;5036324;28;20467;-69
2023/09/10 04:56:28;;;;;;;16.90;11.70;;;21.20;90.90;;;;;;5036627;28;20457;-70
2023/09/10 04:58:55;;;;;;;12.10;10.93;;;21.10;90.80;;;;;;5035640;28;20447;-70
2023/09/10 05:01:22;;;;;;;15.43;11.50;;;21.10;90.80;;;;;;5036197;28;20482;-69
2023/09/10 05:03:48;;;;;;;12.70;11.60;;;21.10;90.90;;;;;;5035261;28;20463;-69
2023/09/10 05:06:19;;;;;;;15.93;11.97;;;21.10;90.90;;;;;;5035075;28;20913;-70
2023/09/10 05:08:46;;;;;;;12.17;10.53;;;21.10;91.00;;;;;;5035191;28;20431;-69
2023/09/10 05:11:14;;;;;;;11.77;10.67;;;21.00;91.20;;;;;;5034480;28;20449;-70
2023/09/10 05:13:41;;;;;;;11.83;10.60;;;21.00;91.10;;;;;;5033632;28;20462;-70
2023/09/10 05:16:08;;;;;;;11.87;10.67;;;21.00;91.10;;;;;;5034264;28;20450;-70
2023/09/10 05:18:34;;;;;;;12.70;11.40;;;21.00;91.30;;;;;;5034404;28;20445;-70
2023/09/10 05:21:01;;;;;;;12.70;11.40;;;21.00;91.30;;;;;;5034221;28;20482;-70
2023/09/10 05:23:30;;;;;;;12.87;10.90;;;21.10;91.40;;;;;;5034319;28;21039;-69
2023/09/10 05:26:01;;;;;;;15.00;10.97;;;21.00;91.40;;;;;;5033878;28;20449;-70
2023/09/10 05:28:28;;;;;;;16.83;12.30;;;21.00;91.40;;;;;;5034016;28;20430;-69
2023/09/10 05:30:54;;;;;;;13.73;12.20;;;21.00;91.50;;;;;;5033970;28;20443;-70
2023/09/10 05:33:21;;;;;;;16.37;11.70;;;21.00;91.70;;;;;;5034069;28;20470;-68
2023/09/10 05:35:55;;;;;;;15.80;12.90;;;21.00;91.70;;;;;;5033744;28;20466;-69
2023/09/10 05:38:21;;;;;;;13.43;12.23;;;21.00;91.80;;;;;;5033938;28;20461;-70
2023/09/10 05:40:49;;;;;;;14.20;12.90;;;21.10;91.90;;;;;;5036906;28;20446;-68
2023/09/10 05:43:18;;;;;;;15.50;13.57;;;21.10;91.90;;;;;;5037160;28;20466;-69
2023/09/10 05:45:46;;;;;;;14.77;12.43;;;21.10;92.00;;;;;;5037116;28;20442;-70
2023/09/10 05:48:13;;;;;;;22.60;12.90;;;21.10;92.10;;;;;;5037338;28;20508;-68
2023/09/10 05:50:42;;;;;;;15.53;13.80;;;21.10;92.10;;;;;;5038013;28;20446;-69
2023/09/10 05:53:09;;;;;;;15.50;13.53;;;21.20;92.30;;;;;;5036832;28;20553;-69
2023/09/10 05:55:40;;;;;;;14.80;13.23;;;21.20;92.40;;;;;;5038373;28;20454;-70
2023/09/10 05:58:09;;;;;;;18.23;14.03;;;21.20;92.50;;;;;;5039394;28;20430;-69
2023/09/10 06:00:36;;;;;;;16.10;13.67;;;21.20;92.70;;;;;;5039927;28;20450;-69
2023/09/10 06:03:03;;;;;;;15.37;14.00;;;21.20;92.80;;;;;;5039859;28;20490;-69
2023/09/10 06:05:30;;;;;;;18.17;13.83;;;21.20;93.00;;;;;;5039657;28;20454;-69
2023/09/10 06:07:57;;;;;;;15.87;14.20;;;21.30;93.10;;;;;;5039112;28;20462;-70
2023/09/10 06:10:24;;;;;;;17.20;14.20;;;21.30;93.20;;;;;;5039164;28;20453;-69
2023/09/10 06:12:51;;;;;;;21.17;17.73;;;21.30;93.30;;;;;;5021672;28;20483;-68
2023/09/10 06:15:19;;;;;;;18.20;16.57;;;21.40;93.50;;;;;;5038229;28;20947;-70
2023/09/10 06:17:46;;;;;;;17.47;15.70;;;21.40;93.70;;;;;;5038882;28;20461;-70
2023/09/10 06:20:15;;;;;;;16.63;14.93;;;21.40;93.80;;;;;;5037481;28;20447;-70
2023/09/10 06:22:42;;;;;;;19.60;17.10;;;21.50;93.90;;;;;;5038174;28;20490;-69
2023/09/10 06:25:09;;;;;;;21.70;16.70;;;21.60;94.00;;;;;;5038958;28;20450;-70
2023/09/10 06:27:36;;;;;;;17.60;15.77;;;21.60;93.90;;;;;;5038605;28;20446;-70
2023/09/10 06:30:03;;;;;;;19.50;17.70;;;21.70;94.00;;;;;;5036870;28;20447;-69
2023/09/10 06:32:31;;;;;;;21.57;17.60;;;21.80;94.00;;;;;;5037847;28;20477;-69
2023/09/10 06:34:58;;;;;;;20.10;17.67;;;21.80;94.20;;;;;;5037881;28;20504;-69
2023/09/10 06:37:25;;;;;;;20.73;18.17;;;21.90;94.20;;;;;;5036871;28;20458;-69
2023/09/10 06:39:52;;;;;;;20.30;18.00;;;22.00;94.30;;;;;;5037820;28;20806;-70
2023/09/10 06:42:18;;;;;;;18.40;16.43;;;22.10;94.40;;;;;;5037382;28;20490;-69
2023/09/10 06:44:45;;;;;;;21.03;18.93;;;22.20;94.50;;;;;;5047230;28;20447;-69
2023/09/10 06:47:12;;;;;;;20.83;17.27;;;22.30;94.40;;;;;;5043364;28;20457;-69
2023/09/10 06:49:40;;;;;;;21.67;18.30;;;22.30;94.30;;;;;;5040684;28;20450;-70
2023/09/10 06:52:08;;;;;;;21.40;18.50;;;22.40;94.20;;;;;;5038902;28;20449;-69
2023/09/10 06:54:35;;;;;;;22.93;19.97;;;22.50;94.00;;;;;;5038893;28;20951;-70
2023/09/10 06:57:02;;;;;;;19.90;17.63;;;22.60;94.00;;;;;;5037582;28;20959;-69
2023/09/10 06:59:29;;;;;;;19.40;17.47;;;22.70;93.90;;;;;;5038633;28;20453;-70
2023/09/10 07:01:56;;;;;;;21.07;18.90;;;22.80;93.60;;;;;;5038202;28;20478;-70
2023/09/10 07:04:24;;;;;;;18.97;17.20;;;22.90;93.40;;;;;;5037680;28;20457;-70
2023/09/10 07:06:54;;;;;;;18.77;15.70;;;23.00;93.40;;;;;;5037041;28;20454;-70
2023/09/10 07:09:23;;;;;;;20.30;18.23;;;23.10;93.10;;;;;;5036959;28;20438;-69
2023/09/10 07:11:50;;;;;;;19.70;16.97;;;23.20;92.90;;;;;;5037287;28;20450;-69
2023/09/10 07:14:16;;;;;;;21.10;18.50;;;23.30;93.00;;;;;;5036538;28;20471;-68
2023/09/10 07:16:43;;;;;;;19.33;17.50;;;23.40;92.60;;;;;;5036690;28;20446;-68
2023/09/10 07:19:11;;;;;;;20.73;17.40;;;23.50;92.40;;;;;;5036141;28;20921;-69
2023/09/10 07:21:38;;;;;;;18.03;16.17;;;23.60;92.20;;;;;;5036196;28;20552;-70
2023/09/10 07:24:09;;;;;;;18.47;16.63;;;23.70;92.20;;;;;;5036208;28;20469;-69
2023/09/10 07:26:37;;;;;;;19.87;16.50;;;23.80;91.90;;;;;;5036457;28;20462;-70
2023/09/10 07:29:05;;;;;;;20.20;15.63;;;23.90;91.60;;;;;;5036689;28;20447;-68
2023/09/10 07:31:33;;;;;;;19.93;15.60;;;24.00;91.50;;;;;;5035410;28;20446;-70
2023/09/10 07:34:01;;;;;;;18.50;14.27;;;24.10;91.40;;;;;;5035875;28;20466;-69
2023/09/10 07:36:27;;;;;;;14.67;12.90;;;24.30;91.00;;;;;;5034966;28;20841;-69
2023/09/10 07:38:54;;;;;;;17.73;14.60;;;24.40;90.80;;;;;;5035992;28;20453;-70
2023/09/10 07:41:23;;;;;;;15.60;14.13;;;24.60;90.60;;;;;;5034990;28;20455;-70
2023/09/10 07:43:50;;;;;;;14.20;11.37;;;24.70;90.40;;;;;;5038686;28;20975;-70
2023/09/10 07:46:17;;;;;;;15.07;12.40;;;24.90;89.90;;;;;;5038695;28;20450;-69
2023/09/10 07:48:44;;;;;;;16.07;14.47;;;25.00;88.60;;;;;;5039628;28;20446;-70
2023/09/10 07:51:10;;;;;;;18.77;13.00;;;25.10;88.20;;;;;;5039010;28;20451;-71
2023/09/10 07:53:37;;;;;;;13.43;11.83;;;25.30;87.10;;;;;;5038126;28;20471;-69
2023/09/10 07:56:04;;;;;;;13.83;12.27;;;25.50;86.10;;;;;;5038191;28;20963;-70
2023/09/10 07:58:34;;;;;;;13.60;10.70;;;25.60;85.10;;;;;;5037558;28;20533;-69
2023/09/10 08:01:01;;;;;;;20.40;14.00;;;25.80;84.30;;;;;;5036650;28;20454;-69
2023/09/10 08:03:28;;;;;;;13.40;12.00;;;25.90;83.90;;;;;;5035414;28;21063;-69
2023/09/10 08:05:55;;;;;;;16.47;14.77;;;26.20;82.70;;;;;;5037390;28;20458;-69
2023/09/10 08:08:22;;;;;;;15.43;13.87;;;26.30;83.00;;;;;;5036454;28;20496;-69
2023/09/10 08:10:50;;;;;;;14.20;12.13;;;26.50;82.50;;;;;;5035613;28;20827;-69
2023/09/10 08:13:17;;;;;;;14.13;11.77;;;26.70;81.10;;;;;;5035963;28;20470;-69
2023/09/10 08:15:46;;;;;;;12.47;11.30;;;26.80;80.00;;;;;;5035957;28;20457;-69
2023/09/10 08:18:13;;;;;;;18.50;13.07;;;27.00;79.90;;;;;;5035699;28;20546;-70
2023/09/10 08:20:42;;;;;;;11.83;10.67;;;27.20;79.10;;;;;;5035513;28;20447;-70
2023/09/10 08:23:09;;;;;;;12.47;10.73;;;27.40;78.20;;;;;;5034667;28;20536;-69
2023/09/10 08:25:36;;;;;;;14.40;11.20;;;27.60;77.60;;;;;;5035262;28;20939;-70
2023/09/10 08:28:04;;;;;;;12.70;11.40;;;27.70;76.30;;;;;;5035099;28;20447;-70
2023/09/10 08:30:31;;;;;;;10.93;10.00;;;27.90;75.60;;;;;;5035260;28;20454;-69
2023/09/10 08:33:02;;;;;;;13.60;10.33;;;28.20;75.50;;;;;;5035050;28;20463;-69
2023/09/10 08:35:44;;;;;;;13.67;10.90;;;28.30;74.00;;;;;;5035502;28;20482;-70
2023/09/10 08:38:11;;;;;;;19.77;11.17;;;28.60;73.20;;;;;;5035790;28;20434;-70
2023/09/10 08:40:42;;;;;;;20.27;12.00;;;28.80;72.20;;;;;;5035715;28;20446;-69
2023/09/10 08:43:12;;;;;;;22.77;12.63;;;29.00;71.40;;;;;;5034948;28;20491;-69
2023/09/10 08:45:38;;;;;;;15.50;13.10;;;29.10;70.80;;;;;;5034986;28;20454;-69
2023/09/10 08:48:08;;;;;;;16.00;10.67;;;29.30;69.10;;;;;;5034795;28;20939;-70
2023/09/10 08:50:36;;;;;;;13.40;12.00;;;29.40;68.70;;;;;;5034205;28;20469;-71
2023/09/10 08:53:06;;;;;;;15.90;11.17;;;29.60;68.10;;;;;;5034570;28;20828;-70
2023/09/10 08:55:35;;;;;;;13.40;11.00;;;29.70;67.00;;;;;;5034647;28;20431;-71
2023/09/10 08:58:02;;;;;;;14.13;11.33;;;29.90;66.80;;;;;;5034160;28;20450;-70
2023/09/10 09:00:30;;;;;;;13.77;10.27;;;30.10;66.90;;;;;;5046322;28;20457;-70
2023/09/10 09:02:57;;;;;;;18.17;10.50;;;30.20;66.60;;;;;;5041278;28;21022;-69
2023/09/10 09:05:30;;;;;;;13.30;10.67;;;30.40;66.20;;;;;;5039136;28;20493;-70
2023/09/10 09:08:01;;;;;;;13.23;9.83;;;30.60;65.40;;;;;;5037690;28;20438;-70
2023/09/10 09:10:29;;;;;;;10.90;9.80;;;30.80;64.70;;;;;;5035738;28;20469;-71
2023/09/10 09:12:58;;;;;;;12.10;10.10;;;31.00;63.50;;;;;;5035438;28;20462;-69
2023/09/10 09:15:26;;;;;;;11.53;9.73;;;31.30;62.30;;;;;;5037888;28;20453;-71
2023/09/10 09:17:56;;;;;;;11.10;10.00;;;31.50;61.20;;;;;;5038378;28;20454;-71
2023/09/10 09:20:26;;;;;;;11.57;10.10;;;31.70;59.80;;;;;;5038755;28;20453;-70
2023/09/10 09:22:56;;;;;;;15.30;9.00;;;32.00;59.00;;;;;;5038879;28;20488;-71
2023/09/10 09:25:23;;;;;;;15.50;10.20;;;32.10;56.50;;;;;;5038596;28;20935;-70
2023/09/10 09:27:51;;;;;;;13.20;10.20;;;32.30;57.20;;;;;;5039568;28;20454;-71
2023/09/10 09:30:18;;;;;;;13.03;9.03;;;32.40;57.00;;;;;;5044836;28;20450;-71
2023/09/10 09:32:46;;;;;;;11.43;9.97;;;32.60;57.10;;;;;;5043955;28;20457;-71
2023/09/10 09:35:13;;;;;;;11.90;9.40;;;32.80;56.60;;;;;;5041848;28;20500;-71
2023/09/10 09:37:41;;;;;;;11.80;9.37;;;33.10;55.80;;;;;;5042009;28;20449;-72
2023/09/10 09:40:09;;;;;;;13.13;9.80;;;33.40;55.00;;;;;;5040972;28;20568;-71
2023/09/10 09:42:36;;;;;;;14.70;9.47;;;33.60;53.50;;;;;;5039018;28;20493;-71
2023/09/10 09:45:04;;;;;;;11.70;9.47;;;33.80;50.80;;;;;;5039931;28;20469;-72
2023/09/10 09:47:31;;;;;;;13.70;8.67;;;34.00;49.60;;;;;;5038828;28;20469;-72
2023/09/10 09:49:58;;;;;;;11.37;9.67;;;34.30;50.60;;;;;;5041282;28;20586;-72
2023/09/10 09:52:26;;;;;;;12.67;9.20;;;34.50;51.10;;;;;;5039391;28;20469;-70
2023/09/10 09:54:54;;;;;;;14.93;8.67;;;34.70;50.50;;;;;;5040836;28;20449;-71
2023/09/10 09:57:21;;;;;;;13.73;7.37;;;35.00;48.40;;;;;;5040599;28;20935;-72
2023/09/10 09:59:49;;;;;;;21.37;7.67;;;35.20;45.80;;;;;;5040374;28;20448;-72
2023/09/10 10:02:18;;;;;;;13.17;8.93;;;35.40;43.20;;;;;;5040653;28;20445;-72
2023/09/10 10:04:45;;;;;;;10.20;7.33;;;35.60;44.00;;;;;;5040478;28;20442;-72
2023/09/10 10:07:14;;;;;;;10.40;7.40;;;35.70;41.30;;;;;;5039249;28;20449;-72
2023/09/10 10:09:42;;;;;;;11.50;7.23;;;35.90;41.70;;;;;;5039349;28;20544;-72
2023/09/10 10:12:10;;;;;;;10.47;7.00;;;36.10;42.40;;;;;;5039329;28;20203;-71
2023/09/10 10:14:38;;;;;;;11.83;7.17;;;36.40;41.70;;;;;;5038782;28;20199;-71
2023/09/10 10:17:06;;;;;;;15.07;8.20;;;36.70;40.40;;;;;;5038877;28;20242;-72
2023/09/10 10:19:34;;;;;;;9.20;7.43;;;37.10;39.60;;;;;;5039279;28;20203;-72
2023/09/10 10:22:04;;;;;;;9.80;7.13;;;37.50;38.80;;;;;;5038864;28;20231;-70
2023/09/10 10:24:32;;;;;;;9.10;6.40;;;37.90;38.20;;;;;;5038620;28;20219;-72
2023/09/10 10:27:02;;;;;;;16.83;7.97;;;38.30;37.00;;;;;;5037531;28;20238;-71
2023/09/10 10:29:31;;;;;;;10.68;6.45;;;38.60;34.40;;;;;;5037178;28;20203;-72
2023/09/10 10:32:03;;;;;;;10.50;6.72;;;38.70;34.90;;;;;;5037179;28;20610;-70
2023/09/10 10:34:38;;;;;;;13.05;6.63;;;39.00;36.00;;;;;;5038098;28;20187;-71
2023/09/10 10:37:12;;;;;;;13.13;7.35;;;39.40;34.00;;;;;;5038450;28;20706;-71
2023/09/10 10:39:47;;;;;;;12.55;6.80;;;39.80;32.00;;;;;;5041637;28;20198;-70
2023/09/10 10:42:18;;;;;;;11.25;6.22;;;40.20;33.00;;;;;;5040077;28;20214;-70
2023/09/10 10:44:51;;;;;;;11.55;6.38;;;40.60;32.90;;;;;;5039628;28;20184;-70
2023/09/10 10:47:20;;;;;;;8.65;5.50;;;41.20;32.60;;;;;;5039340;28;20191;-71
2023/09/10 10:49:52;;;;;;;12.25;6.90;;;41.70;31.20;;;;;;5038382;28;20294;-71
2023/09/10 10:52:23;;;;;;;11.55;6.05;;;42.20;30.00;;;;;;5038271;28;20258;-70
2023/09/10 10:54:52;;;;;;;7.90;6.00;;;42.70;28.50;;;;;;5038898;28;20187;-71
2023/09/10 10:57:21;;;;;;;7.65;5.38;;;43.10;28.20;;;;;;5038261;28;20203;-71
2023/09/10 10:59:49;;;;;;;9.90;5.90;;;43.50;27.90;;;;;;5038129;28;20206;-70
2023/09/10 11:02:21;;;;;;;12.40;6.60;;;43.90;26.80;;;;;;5037914;28;20198;-70
2023/09/10 11:04:59;;;;;;;13.48;6.97;;;44.10;26.70;;;;;;5036140;28;20253;-71
2023/09/10 11:07:26;;;;;;;9.82;5.80;;;44.50;27.00;;;;;;5037445;28;20183;-70
2023/09/10 11:09:53;;;;;;;8.68;6.15;;;44.70;26.60;;;;;;5037468;28;20207;-70
2023/09/10 11:12:20;;;;;;;6.00;5.00;;;45.00;26.50;;;;;;5037042;28;20606;-71
2023/09/10 11:15:10;;;;;;;9.45;5.82;;;45.30;26.20;;;;;;5037325;28;20203;-71
2023/09/10 11:17:37;;;;;;;9.30;5.53;;;45.50;26.40;;;;;;5038778;28;20187;-70
2023/09/10 11:20:05;;;;;;;9.38;5.53;;;45.80;25.40;;;;;;5053002;28;20195;-71
2023/09/10 11:23:06;;;;;;;11.30;5.55;;;46.20;24.60;;;;;;5043405;28;20223;-70
2023/09/10 11:25:34;;;;;;;9.93;5.40;;;46.50;24.30;;;;;;5041472;28;20640;-71
2023/09/10 11:28:01;;;;;;;8.85;5.07;;;46.70;24.00;;;;;;5039371;28;20242;-70
2023/09/10 11:30:30;;;;;;;10.13;5.43;;;46.90;24.10;;;;;;5038966;28;20237;-70
2023/09/10 11:33:30;;;;;;;7.72;4.72;;;46.90;23.50;;;;;;5037465;28;20214;-70
2023/09/10 11:36:01;;;;;;;8.40;5.05;;;47.20;24.10;;;;;;5037864;28;20207;-71
2023/09/10 11:38:30;;;;;;;10.65;5.05;;;47.30;21.40;;;;;;5037580;28;20188;-70
2023/09/10 11:41:00;;;;;;;6.53;5.20;;;47.20;22.30;;;;;;5037293;28;20207;-71
2023/09/10 11:43:29;;;;;;;8.00;5.55;;;47.30;23.30;;;;;;5036798;28;20250;-70
2023/09/10 11:45:57;;;;;;;6.50;5.32;;;47.50;23.10;;;;;;5036434;28;20235;-71
2023/09/10 11:48:24;;;;;;;11.52;4.97;;;47.80;23.10;;;;;;5036548;28;20684;-71
2023/09/10 11:50:51;;;;;;;8.55;5.40;;;48.00;22.20;;;;;;5036361;28;20203;-71
2023/09/10 11:53:20;;;;;;;5.30;4.88;;;48.30;21.20;;;;;;5036738;28;20223;-70
2023/09/10 11:55:49;;;;;;;7.22;5.47;;;48.30;21.10;;;;;;5036198;28;20230;-71
2023/09/10 11:58:17;;;;;;;7.97;4.85;;;48.50;22.10;;;;;;5035681;28;20207;-72
2023/09/10 12:00:44;;;;;;;8.15;5.18;;;48.80;21.80;;;;;;5037249;28;20203;-72
2023/09/10 12:03:14;;;;;;;6.65;4.60;;;49.10;20.50;;;;;;5036696;28;20254;-70
2023/09/10 12:05:42;;;;;;;9.77;4.50;;;49.20;19.60;;;;;;5036717;28;20199;-71
2023/09/10 12:08:09;;;;;;;5.07;4.57;;;49.40;19.60;;;;;;5035426;28;20199;-72
2023/09/10 12:10:37;;;;;;;6.20;4.43;;;49.70;19.70;;;;;;5035771;28;20234;-71
2023/09/10 12:13:05;;;;;;;13.82;5.15;;;49.90;19.30;;;;;;5036023;28;20223;-72
2023/09/10 12:15:33;;;;;;;6.68;4.70;;;50.00;18.90;;;;;;5036178;28;20203;-71
2023/09/10 12:18:04;;;;;;;7.68;4.65;;;50.30;18.60;;;;;;5035097;28;20687;-72
2023/09/10 12:20:34;;;;;;;9.23;4.78;;;50.40;18.10;;;;;;5034299;28;20188;-72
2023/09/10 12:23:01;;;;;;;5.30;4.35;;;50.40;18.40;;;;;;5035549;28;20254;-70
2023/09/10 12:25:28;;;;;;;9.45;5.25;;;50.60;19.00;;;;;;5035709;28;20660;-72
2023/09/10 12:27:56;;;;;;;10.82;5.07;;;50.50;18.10;;;;;;5035881;28;20207;-71
2023/09/10 12:30:23;;;;;;;9.52;4.72;;;50.40;18.40;;;;;;5034456;28;20210;-73
2023/09/10 12:32:50;;;;;;;8.75;4.93;;;50.30;18.90;;;;;;5034233;28;20223;-73
2023/09/10 12:35:17;;;;;;;9.15;4.85;;;50.10;19.20;;;;;;5033024;28;20668;-74